Time;durP1;ratioP1;P1;durP2;ratioP2;P2;SDS_P1;SDS_P2;PMS_P1;PMS_P2;Temp;Humidity;BMP_temperature;BMP_pressure;BME280_temperature;BME280_humidity;BME280_pressure;Samples;Min_cycle;Max_cycle;Signal;HPM_P1;HPM_P2
2020/12/23 00:01:27;;;;;;;27.63;13.75;;;-0.20;99.90;;;;;;4973660;28;20150;-78
2020/12/23 00:03:55;;;;;;;38.55;15.70;;;-0.20;99.90;;;;;;4975055;28;20025;-79
2020/12/23 00:06:21;;;;;;;29.38;15.48;;;-0.30;99.90;;;;;;4974811;28;20046;-78
2020/12/23 00:08:47;;;;;;;30.17;16.00;;;-0.30;99.90;;;;;;4974908;28;20105;-78
2020/12/23 00:11:16;;;;;;;35.00;16.33;;;-0.30;99.90;;;;;;4974792;28;20030;-77
2020/12/23 00:13:41;;;;;;;36.85;16.58;;;-0.20;99.90;;;;;;4953966;28;20056;-76
2020/12/23 00:16:07;;;;;;;38.03;16.77;;;-0.30;99.90;;;;;;4955340;28;20031;-77
2020/12/23 00:18:33;;;;;;;40.15;19.45;;;-0.30;99.90;;;;;;4955401;29;20114;-77
2020/12/23 00:20:59;;;;;;;34.28;17.40;;;-0.30;99.90;;;;;;4938212;29;20027;-76
2020/12/23 00:23:24;;;;;;;33.97;16.95;;;-0.30;99.90;;;;;;4955264;29;20078;-77
2020/12/23 00:25:50;;;;;;;45.40;19.05;;;-0.30;99.90;;;;;;4955296;28;20131;-77
2020/12/23 00:28:16;;;;;;;32.45;17.02;;;-0.40;99.90;;;;;;4938034;29;20030;-77
2020/12/23 00:30:41;;;;;;;34.72;15.93;;;-0.40;99.90;;;;;;4955079;29;20035;-77
2020/12/23 00:33:07;;;;;;;35.17;16.63;;;-0.40;99.90;;;;;;4938187;29;20373;-77
2020/12/23 00:35:33;;;;;;;43.10;16.85;;;-0.40;99.90;;;;;;4955108;28;20085;-76
2020/12/23 00:37:58;;;;;;;36.17;17.77;;;-0.50;99.90;;;;;;4955092;29;20048;-76
2020/12/23 00:40:24;;;;;;;33.50;17.02;;;-0.50;99.90;;;;;;4955159;29;20028;-76
2020/12/23 00:42:50;;;;;;;34.40;16.35;;;-0.50;99.90;;;;;;4955062;29;20478;-76
2020/12/23 00:45:15;;;;;;;36.08;17.00;;;-0.50;99.90;;;;;;4955018;29;20027;-77
2020/12/23 00:47:41;;;;;;;37.33;18.23;;;-0.50;99.90;;;;;;4938269;29;20066;-77
2020/12/23 00:50:07;;;;;;;38.55;16.30;;;-0.40;99.90;;;;;;4955611;29;20049;-77
2020/12/23 00:52:32;;;;;;;43.35;18.20;;;-0.50;99.90;;;;;;4955556;29;20355;-77
2020/12/23 00:54:58;;;;;;;41.30;19.38;;;-0.40;99.90;;;;;;4955111;29;20083;-77
2020/12/23 00:57:24;;;;;;;37.38;18.58;;;-0.40;99.90;;;;;;4955086;28;20474;-77
2020/12/23 00:59:49;;;;;;;38.58;17.45;;;-0.30;99.90;;;;;;4954825;29;20111;-77
2020/12/23 01:02:15;;;;;;;36.80;17.63;;;-0.30;99.90;;;;;;4954781;29;20106;-78
2020/12/23 01:04:41;;;;;;;34.55;17.05;;;-0.30;99.90;;;;;;4954762;29;20019;-77
2020/12/23 01:07:06;;;;;;;36.17;16.02;;;-0.30;99.90;;;;;;4954615;29;20023;-77
2020/12/23 01:09:32;;;;;;;38.20;17.75;;;-0.30;99.90;;;;;;4954759;28;20031;-78
2020/12/23 01:11:58;;;;;;;41.40;18.15;;;-0.30;99.90;;;;;;4954490;28;20131;-78
2020/12/23 01:14:23;;;;;;;40.38;17.50;;;-0.30;99.90;;;;;;4965330;28;20069;-77
2020/12/23 01:16:49;;;;;;;39.10;18.70;;;-0.30;99.90;;;;;;4973726;28;20034;-77
2020/12/23 01:19:15;;;;;;;44.10;18.98;;;-0.30;99.90;;;;;;4973368;28;20034;-77
2020/12/23 01:21:43;;;;;;;31.27;15.50;;;-0.30;99.90;;;;;;4973862;28;20030;-77
2020/12/23 01:24:09;;;;;;;31.83;15.30;;;-0.20;99.90;;;;;;4973856;28;20023;-77
2020/12/23 01:26:35;;;;;;;36.85;16.58;;;-0.20;99.90;;;;;;4973714;28;20023;-78
2020/12/23 01:29:00;;;;;;;36.60;17.17;;;-0.20;99.90;;;;;;4973680;28;20019;-77
2020/12/23 01:31:26;;;;;;;34.15;16.38;;;-0.20;99.90;;;;;;4973405;28;20026;-77
2020/12/23 01:33:52;;;;;;;44.72;19.40;;;-0.20;99.90;;;;;;4973512;28;20078;-77
2020/12/23 01:36:17;;;;;;;35.20;17.52;;;-0.20;99.90;;;;;;4973485;28;20097;-77
2020/12/23 01:38:43;;;;;;;39.72;19.02;;;-0.20;99.90;;;;;;4971916;28;20041;-77
2020/12/23 01:41:09;;;;;;;43.05;17.73;;;-0.20;99.90;;;;;;4956003;28;20023;-76
2020/12/23 01:43:34;;;;;;;39.45;17.77;;;-0.20;99.90;;;;;;4973320;28;20366;-76
2020/12/23 01:46:00;;;;;;;39.92;16.75;;;-0.20;99.90;;;;;;4973330;28;20022;-76
2020/12/23 01:48:30;;;;;;;34.75;16.60;;;-0.20;99.90;;;;;;4973261;28;20082;-76
2020/12/23 01:50:59;;;;;;;41.10;18.58;;;-0.20;99.90;;;;;;4955755;28;20027;-77
2020/12/23 01:53:26;;;;;;;43.08;19.70;;;-0.10;99.90;;;;;;4973256;28;20536;-77
2020/12/23 01:55:52;;;;;;;49.80;20.30;;;-0.20;99.90;;;;;;4973124;28;20023;-77
2020/12/23 01:58:18;;;;;;;41.42;18.92;;;-0.20;99.90;;;;;;4973162;28;20027;-77
2020/12/23 02:00:44;;;;;;;44.75;19.70;;;-0.10;99.90;;;;;;4971958;28;20039;-77
2020/12/23 02:03:11;;;;;;;43.58;19.60;;;-0.10;99.90;;;;;;4972086;28;20118;-77
2020/12/23 02:05:38;;;;;;;45.88;20.40;;;-0.10;99.90;;;;;;4973236;28;20086;-77
2020/12/23 02:08:04;;;;;;;42.38;18.88;;;-0.10;99.90;;;;;;4973193;28;20385;-76
2020/12/23 02:10:31;;;;;;;46.35;19.92;;;-0.10;99.90;;;;;;4973291;28;20035;-77
2020/12/23 02:12:59;;;;;;;45.55;19.50;;;-0.10;99.90;;;;;;4973124;28;20031;-76
2020/12/23 02:15:25;;;;;;;50.85;21.00;;;-0.10;99.90;;;;;;4973123;28;20082;-76
2020/12/23 02:17:50;;;;;;;47.63;20.83;;;-0.10;99.90;;;;;;4973082;28;20430;-76
2020/12/23 02:20:17;;;;;;;49.90;21.95;;;-0.10;99.90;;;;;;4972744;28;20100;-76
2020/12/23 02:22:46;;;;;;;49.95;20.23;;;-0.10;99.90;;;;;;4972966;28;20023;-76
2020/12/23 02:25:13;;;;;;;47.97;21.38;;;-0.10;99.90;;;;;;4972985;28;20028;-76
2020/12/23 02:27:40;;;;;;;48.80;20.33;;;-0.20;99.90;;;;;;4972932;28;20034;-76
2020/12/23 02:30:07;;;;;;;44.65;19.95;;;-0.20;99.90;;;;;;4971665;28;20030;-76
2020/12/23 02:32:33;;;;;;;49.47;19.98;;;-0.10;99.90;;;;;;4972918;28;20035;-76
2020/12/23 02:34:59;;;;;;;54.35;21.05;;;-0.10;99.90;;;;;;4972879;28;20241;-76
2020/12/23 02:37:25;;;;;;;48.53;20.20;;;-0.10;99.90;;;;;;4972673;28;20038;-75
2020/12/23 02:39:53;;;;;;;44.58;19.00;;;-0.10;99.90;;;;;;4972645;28;20023;-75
2020/12/23 02:42:22;;;;;;;53.67;25.10;;;-0.10;99.90;;;;;;4971565;28;20031;-75
2020/12/23 02:44:48;;;;;;;36.75;16.80;;;-0.10;99.90;;;;;;4972782;28;20027;-76
2020/12/23 02:47:16;;;;;;;34.83;16.67;;;-0.10;99.90;;;;;;4972667;28;20358;-76
2020/12/23 02:49:42;;;;;;;36.58;15.88;;;0.00;99.90;;;;;;4972775;28;20031;-76
2020/12/23 02:52:09;;;;;;;40.00;17.65;;;-0.10;99.90;;;;;;4974699;28;20123;-76
2020/12/23 02:54:35;;;;;;;46.40;18.98;;;0.00;99.90;;;;;;4976546;28;20027;-76
2020/12/23 02:57:02;;;;;;;44.17;18.27;;;0.00;99.90;;;;;;4975239;28;20115;-76
2020/12/23 02:59:27;;;;;;;38.97;17.55;;;0.10;99.90;;;;;;4976385;28;20035;-76
2020/12/23 03:01:53;;;;;;;36.80;15.90;;;0.00;99.90;;;;;;4976365;28;20549;-76
2020/12/23 03:04:19;;;;;;;36.50;14.82;;;0.10;99.90;;;;;;4976709;28;20200;-76
2020/12/23 03:06:45;;;;;;;31.30;14.10;;;0.10;99.90;;;;;;4976261;28;20023;-77
2020/12/23 03:09:12;;;;;;;31.30;14.45;;;0.10;99.90;;;;;;4976192;28;20074;-76
2020/12/23 03:11:39;;;;;;;28.65;13.30;;;0.20;99.90;;;;;;4976072;28;20073;-76
2020/12/23 03:14:06;;;;;;;25.83;10.85;;;0.10;99.90;;;;;;4975945;28;20577;-76
2020/12/23 03:16:32;;;;;;;23.95;12.07;;;0.10;99.90;;;;;;4976062;28;20493;-76
2020/12/23 03:18:58;;;;;;;24.30;12.80;;;0.00;99.90;;;;;;4975959;28;20042;-77
2020/12/23 03:21:24;;;;;;;20.88;10.75;;;0.00;99.90;;;;;;4975769;28;20030;-77
2020/12/23 03:23:50;;;;;;;20.27;10.63;;;0.10;99.90;;;;;;4976053;28;20029;-76
2020/12/23 03:26:16;;;;;;;22.90;12.18;;;0.00;99.90;;;;;;4958692;28;20057;-77
2020/12/23 03:28:42;;;;;;;20.33;11.57;;;0.00;99.90;;;;;;4974797;28;20050;-76
2020/12/23 03:31:08;;;;;;;23.40;11.68;;;0.00;99.90;;;;;;4975704;28;20062;-77
2020/12/23 03:33:34;;;;;;;22.45;11.73;;;0.00;99.90;;;;;;4974749;28;20026;-77
2020/12/23 03:36:00;;;;;;;23.30;11.05;;;0.00;99.90;;;;;;4975638;28;20409;-77
2020/12/23 03:38:26;;;;;;;20.70;11.55;;;0.00;99.90;;;;;;4975519;28;20450;-77
2020/12/23 03:40:53;;;;;;;18.80;11.15;;;0.00;99.90;;;;;;4975421;28;20031;-78
2020/12/23 03:43:19;;;;;;;20.25;11.60;;;0.00;99.90;;;;;;4975448;28;20069;-77
2020/12/23 03:45:45;;;;;;;21.90;12.50;;;0.00;99.90;;;;;;4975490;28;20062;-77
2020/12/23 03:48:11;;;;;;;19.95;11.60;;;0.00;99.90;;;;;;4975427;28;20110;-77
2020/12/23 03:50:37;;;;;;;21.10;11.30;;;0.00;99.90;;;;;;4975170;28;20033;-77
2020/12/23 03:53:03;;;;;;;20.58;11.50;;;0.00;99.90;;;;;;4975360;28;20473;-77
2020/12/23 03:55:28;;;;;;;22.80;11.52;;;0.00;99.90;;;;;;4975189;28;20041;-77
2020/12/23 03:57:54;;;;;;;22.45;11.82;;;0.00;99.90;;;;;;4975140;28;20040;-77
2020/12/23 04:00:20;;;;;;;22.58;12.52;;;0.00;99.90;;;;;;4975366;28;20038;-77
2020/12/23 04:02:46;;;;;;;20.67;11.15;;;0.00;99.90;;;;;;4974769;28;20125;-76
2020/12/23 04:05:12;;;;;;;23.67;13.15;;;0.10;99.90;;;;;;4957627;28;20115;-78
2020/12/23 04:07:38;;;;;;;23.05;12.20;;;0.10;99.90;;;;;;4973797;28;20031;-75
2020/12/23 04:10:05;;;;;;;21.83;12.20;;;0.10;99.90;;;;;;4974264;28;20125;-80
2020/12/23 04:12:31;;;;;;;22.05;12.80;;;0.10;99.90;;;;;;4974251;28;20117;-77
2020/12/23 04:14:57;;;;;;;23.02;12.48;;;0.10;99.90;;;;;;4975057;28;20131;-76
2020/12/23 04:17:23;;;;;;;21.45;11.85;;;0.10;99.90;;;;;;4974823;28;20351;-76
2020/12/23 04:19:48;;;;;;;19.13;12.05;;;0.10;99.90;;;;;;4974835;28;20030;-76
2020/12/23 04:22:14;;;;;;;22.88;12.10;;;0.10;99.90;;;;;;4974738;28;20034;-76
2020/12/23 04:24:40;;;;;;;22.35;12.57;;;0.10;99.90;;;;;;4974543;28;20033;-77
2020/12/23 04:27:05;;;;;;;23.58;13.07;;;0.10;99.90;;;;;;4974398;28;20052;-77
2020/12/23 04:29:31;;;;;;;20.20;10.80;;;0.10;99.90;;;;;;4974387;28;20473;-77
2020/12/23 04:31:58;;;;;;;21.33;12.20;;;0.10;99.90;;;;;;4973072;28;20034;-77
2020/12/23 04:34:24;;;;;;;21.10;12.10;;;0.10;99.90;;;;;;4974312;28;20068;-78
2020/12/23 04:36:50;;;;;;;20.05;11.55;;;0.10;99.90;;;;;;4974265;28;20054;-78
2020/12/23 04:39:16;;;;;;;19.85;11.80;;;0.10;99.90;;;;;;4973803;28;20487;-78
2020/12/23 04:41:41;;;;;;;23.80;12.82;;;0.00;99.90;;;;;;4974194;28;20027;-78
2020/12/23 04:44:07;;;;;;;24.95;12.65;;;0.00;99.90;;;;;;4974210;28;20378;-78
2020/12/23 04:46:40;;;;;;;21.20;12.98;;;0.10;99.90;;;;;;4974106;28;20275;-79
2020/12/23 04:49:07;;;;;;;27.00;13.40;;;0.00;99.90;;;;;;4972825;28;20038;-78
2020/12/23 04:51:35;;;;;;;24.10;14.00;;;0.10;99.90;;;;;;4973939;28;20267;-78
2020/12/23 04:54:03;;;;;;;22.80;13.10;;;0.10;99.90;;;;;;4973813;28;20054;-78
2020/12/23 04:56:30;;;;;;;25.88;12.75;;;0.10;99.90;;;;;;4973853;28;20038;-78
2020/12/23 04:58:58;;;;;;;23.20;13.60;;;0.10;99.90;;;;;;4973963;28;20173;-79
2020/12/23 05:01:24;;;;;;;24.77;12.13;;;0.10;99.90;;;;;;4973834;28;20039;-79
2020/12/23 05:03:54;;;;;;;22.88;12.20;;;0.00;99.90;;;;;;4956412;28;20090;-79
2020/12/23 05:06:22;;;;;;;26.45;13.52;;;0.10;99.90;;;;;;4973584;28;20122;-80
2020/12/23 05:08:48;;;;;;;26.92;13.63;;;0.10;99.90;;;;;;4973440;28;20053;-78
2020/12/23 05:11:14;;;;;;;26.85;14.25;;;0.10;99.90;;;;;;4955547;28;20042;-77
2020/12/23 05:13:41;;;;;;;24.70;13.43;;;0.00;99.90;;;;;;4973024;28;20058;-77
2020/12/23 05:16:12;;;;;;;27.25;14.93;;;0.10;99.90;;;;;;4973149;28;20042;-79
2020/12/23 05:18:40;;;;;;;23.67;13.52;;;0.10;99.90;;;;;;4973134;28;20089;-78
2020/12/23 05:21:15;;;;;;;24.08;13.38;;;0.10;99.90;;;;;;4973424;28;20465;-78
2020/12/23 05:23:47;;;;;;;25.08;13.35;;;0.10;99.90;;;;;;4973450;28;20057;-77
2020/12/23 05:26:14;;;;;;;27.27;14.32;;;0.10;99.90;;;;;;4973082;28;20359;-78
2020/12/23 05:28:43;;;;;;;27.08;14.55;;;0.10;99.90;;;;;;4973058;28;20516;-78
2020/12/23 05:31:13;;;;;;;25.38;14.07;;;0.10;99.90;;;;;;4973017;28;20062;-77
2020/12/23 05:33:42;;;;;;;27.48;14.18;;;0.20;99.90;;;;;;4972832;28;20019;-78
2020/12/23 05:36:18;;;;;;;26.33;14.38;;;0.20;99.90;;;;;;4972160;28;20058;-78
2020/12/23 05:38:45;;;;;;;26.58;14.00;;;0.10;99.90;;;;;;4972549;28;20037;-78
2020/12/23 05:41:13;;;;;;;28.02;14.00;;;0.10;99.90;;;;;;4972773;28;20488;-79
2020/12/23 05:43:40;;;;;;;27.30;14.65;;;0.10;99.90;;;;;;4973037;28;20110;-78
2020/12/23 05:46:08;;;;;;;30.02;16.08;;;0.20;99.90;;;;;;4972285;28;20019;-78
2020/12/23 05:48:36;;;;;;;32.45;15.05;;;0.10;99.90;;;;;;4972664;28;20026;-79
2020/12/23 05:51:03;;;;;;;29.02;15.65;;;0.20;99.90;;;;;;4972820;28;20110;-79
2020/12/23 05:53:33;;;;;;;29.50;16.50;;;0.20;99.90;;;;;;4971288;28;20429;-79
2020/12/23 05:56:00;;;;;;;28.48;14.48;;;0.10;99.90;;;;;;4972803;28;20033;-79
2020/12/23 05:58:27;;;;;;;32.90;16.55;;;0.10;99.90;;;;;;4971040;28;20026;-79
2020/12/23 06:00:55;;;;;;;32.25;16.20;;;0.10;99.90;;;;;;4971816;28;20023;-80
2020/12/23 06:03:31;;;;;;;30.30;14.43;;;0.20;99.90;;;;;;4972162;28;20098;-75
2020/12/23 06:05:59;;;;;;;40.30;15.65;;;0.20;99.90;;;;;;4971913;28;20494;-75
2020/12/23 06:08:33;;;;;;;33.45;15.77;;;0.20;99.90;;;;;;4972220;28;20717;-74
2020/12/23 06:11:34;;;;;;;32.45;15.88;;;0.20;99.90;;;;;;4972352;28;20030;-74
2020/12/23 06:14:02;;;;;;;36.03;16.65;;;0.20;99.90;;;;;;4970537;28;20046;-75
2020/12/23 06:16:34;;;;;;;35.67;17.95;;;0.20;99.90;;;;;;4972502;28;20220;-80
2020/12/23 06:19:03;;;;;;;34.88;17.00;;;0.20;99.90;;;;;;4972203;28;20109;-79
2020/12/23 06:21:29;;;;;;;35.50;19.65;;;0.20;99.90;;;;;;4972117;28;20086;-75
2020/12/23 06:24:02;;;;;;;38.28;19.98;;;0.20;99.90;;;;;;4971831;28;20034;-75
2020/12/23 06:26:33;;;;;;;40.10;19.90;;;0.20;99.90;;;;;;4972977;28;20023;-75
2020/12/23 06:29:01;;;;;;;49.03;21.38;;;0.20;99.90;;;;;;4973977;28;20518;-74
2020/12/23 06:31:48;;;;;;;44.85;21.00;;;0.20;99.90;;;;;;4975545;28;20031;-75
2020/12/23 06:34:22;;;;;;;42.00;21.63;;;0.30;99.90;;;;;;4958069;28;20054;-76
2020/12/23 06:36:49;;;;;;;47.00;22.05;;;0.30;99.90;;;;;;4975851;28;20496;-76
2020/12/23 06:39:32;;;;;;;49.15;23.92;;;0.30;99.90;;;;;;4975409;28;20512;-77
2020/12/23 06:42:00;;;;;;;52.17;23.60;;;0.40;99.90;;;;;;4975609;28;20462;-77
2020/12/23 06:44:41;;;;;;;41.38;22.10;;;0.40;99.90;;;;;;4975186;28;20366;-78
2020/12/23 06:47:20;;;;;;;46.95;22.83;;;0.40;99.90;;;;;;4974568;28;20091;-78
2020/12/23 06:49:54;;;;;;;42.15;22.05;;;0.40;99.90;;;;;;4975217;28;20473;-78
2020/12/23 06:52:23;;;;;;;47.67;23.98;;;0.50;99.90;;;;;;4975355;28;20038;-77
2020/12/23 06:55:01;;;;;;;37.83;20.05;;;0.50;99.90;;;;;;4975315;28;20371;-78
2020/12/23 06:57:35;;;;;;;45.05;23.02;;;0.60;99.90;;;;;;4975255;28;20027;-76
2020/12/23 07:00:23;;;;;;;46.15;21.35;;;0.50;99.90;;;;;;4958112;28;20111;-78
2020/12/23 07:03:04;;;;;;;40.22;20.10;;;0.60;99.90;;;;;;4959545;28;20085;-78
2020/12/23 07:05:34;;;;;;;41.58;19.08;;;0.60;99.90;;;;;;4974330;28;20473;-77
2020/12/23 07:08:10;;;;;;;36.83;18.88;;;0.60;99.90;;;;;;4975349;28;20033;-77
2020/12/23 07:10:39;;;;;;;34.30;18.80;;;0.50;99.90;;;;;;4974011;28;20042;-78
2020/12/23 07:13:07;;;;;;;36.58;17.00;;;0.50;99.90;;;;;;4974699;28;20319;-77
2020/12/23 07:15:35;;;;;;;39.80;19.00;;;0.60;99.90;;;;;;4974235;28;20079;-77
2020/12/23 07:18:05;;;;;;;37.50;18.92;;;0.60;99.90;;;;;;4974235;28;20493;-76
2020/12/23 07:20:53;;;;;;;37.42;17.83;;;0.60;99.90;;;;;;4974300;28;20031;-77
2020/12/23 07:23:20;;;;;;;35.22;18.08;;;0.70;99.90;;;;;;4954350;28;20149;-78
2020/12/23 07:25:57;;;;;;;34.65;17.73;;;0.70;99.90;;;;;;4974392;28;20791;-79
2020/12/23 07:28:41;;;;;;;31.33;16.58;;;0.70;99.90;;;;;;4974265;28;20027;-80
2020/12/23 07:31:08;;;;;;;33.60;17.83;;;0.80;99.90;;;;;;4974602;28;20031;-80
2020/12/23 07:33:37;;;;;;;37.13;19.02;;;0.80;99.90;;;;;;4974305;28;20081;-79
2020/12/23 07:36:03;;;;;;;38.00;18.75;;;0.80;99.90;;;;;;4974946;28;20053;-79
2020/12/23 07:38:36;;;;;;;44.00;20.52;;;0.90;99.90;;;;;;4975113;28;20054;-78
2020/12/23 07:41:02;;;;;;;35.55;18.00;;;0.90;99.90;;;;;;4974981;28;20030;-78
2020/12/23 07:43:28;;;;;;;44.30;20.48;;;0.90;99.90;;;;;;4974185;28;20090;-79
2020/12/23 07:45:55;;;;;;;29.65;16.10;;;0.90;99.90;;;;;;4974363;28;20027;-78
2020/12/23 07:48:30;;;;;;;29.80;15.77;;;0.90;99.90;;;;;;4974327;28;20018;-79
2020/12/23 07:50:57;;;;;;;32.78;18.02;;;0.90;99.90;;;;;;4974258;28;20030;-77
2020/12/23 07:53:28;;;;;;;35.53;18.88;;;0.80;99.90;;;;;;4974271;28;20075;-79
2020/12/23 07:56:00;;;;;;;36.00;17.15;;;0.80;99.90;;;;;;4974167;28;20051;-81
2020/12/23 07:58:26;;;;;;;40.60;20.57;;;0.80;99.90;;;;;;4957717;28;20027;-82
2020/12/23 08:00:52;;;;;;;30.88;16.75;;;0.90;99.90;;;;;;4974574;28;20544;-80
2020/12/23 08:03:31;;;;;;;34.10;17.10;;;0.90;99.90;;;;;;4973772;28;20027;-79
2020/12/23 08:06:08;;;;;;;30.98;15.75;;;1.00;99.90;;;;;;4973047;28;20389;-82
2020/12/23 08:08:35;;;;;;;27.88;15.60;;;1.00;99.90;;;;;;4974068;28;20031;-83
2020/12/23 08:11:11;;;;;;;33.13;17.75;;;1.00;99.90;;;;;;4972792;28;20033;-79
2020/12/23 08:13:37;;;;;;;34.33;19.05;;;1.00;99.90;;;;;;4974522;28;20501;-77
2020/12/23 08:16:13;;;;;;;37.72;19.15;;;1.10;99.90;;;;;;4974439;28;20030;-78
2020/12/23 08:18:40;;;;;;;36.55;19.90;;;1.10;99.90;;;;;;4974509;28;20033;-78
2020/12/23 08:21:17;;;;;;;35.83;19.63;;;1.10;99.90;;;;;;4974085;28;20033;-79
2020/12/23 08:23:46;;;;;;;38.42;20.17;;;1.10;99.90;;;;;;4974265;28;20070;-79
2020/12/23 08:26:13;;;;;;;32.92;18.25;;;1.20;99.90;;;;;;4974308;28;20066;-79
2020/12/23 08:28:40;;;;;;;33.90;18.02;;;1.30;99.90;;;;;;4974025;28;20047;-79
2020/12/23 08:31:10;;;;;;;35.55;18.30;;;1.40;99.90;;;;;;4973609;28;20026;-80
2020/12/23 08:33:37;;;;;;;34.65;18.25;;;1.50;99.90;;;;;;4972369;28;20500;-78
2020/12/23 08:36:05;;;;;;;38.97;18.70;;;1.60;99.90;;;;;;4973874;28;20031;-79
2020/12/23 08:38:31;;;;;;;32.45;17.02;;;1.60;99.90;;;;;;4973680;28;20018;-78
2020/12/23 08:40:59;;;;;;;33.70;17.38;;;1.50;99.90;;;;;;4972425;28;20389;-79
2020/12/23 08:43:29;;;;;;;33.53;17.30;;;1.60;99.90;;;;;;4973771;28;20030;-78
2020/12/23 08:45:58;;;;;;;39.17;19.77;;;1.60;99.90;;;;;;4974040;28;20724;-78
2020/12/23 08:48:26;;;;;;;42.72;18.80;;;1.60;99.90;;;;;;4973250;28;20078;-79
2020/12/23 08:50:59;;;;;;;37.28;19.48;;;1.60;99.90;;;;;;4973413;28;20030;-76
2020/12/23 08:53:38;;;;;;;47.20;20.20;;;1.60;99.90;;;;;;4973782;28;20370;-80
2020/12/23 08:56:30;;;;;;;37.53;18.60;;;1.60;99.90;;;;;;4973224;28;20799;-80
2020/12/23 08:59:04;;;;;;;40.30;18.70;;;1.60;99.90;;;;;;4973091;28;20105;-80
2020/12/23 09:01:31;;;;;;;40.90;18.98;;;1.60;99.90;;;;;;4955412;28;20050;-80
2020/12/23 09:03:58;;;;;;;34.72;18.10;;;1.60;99.90;;;;;;4973585;28;20050;-80
2020/12/23 09:06:24;;;;;;;29.45;16.25;;;1.60;99.90;;;;;;4973265;28;20038;-80
2020/12/23 09:08:49;;;;;;;30.02;16.52;;;1.60;99.90;;;;;;4971162;28;20022;-79
2020/12/23 09:11:15;;;;;;;33.20;16.45;;;1.60;99.90;;;;;;4973047;28;20508;-81
2020/12/23 09:13:41;;;;;;;27.90;14.65;;;1.70;99.90;;;;;;4973506;28;20120;-82
2020/12/23 09:16:06;;;;;;;33.00;17.25;;;1.70;99.90;;;;;;4973452;28;20031;-82
2020/12/23 09:18:32;;;;;;;32.95;16.45;;;1.80;99.90;;;;;;4972809;28;20031;-82
2020/12/23 09:20:59;;;;;;;31.35;15.52;;;1.80;99.90;;;;;;4974163;28;20034;-82
2020/12/23 09:23:26;;;;;;;31.63;15.75;;;1.80;99.90;;;;;;4974125;28;20037;-83
2020/12/23 09:25:52;;;;;;;30.45;15.30;;;1.90;99.90;;;;;;4974448;28;20023;-82
2020/12/23 09:28:18;;;;;;;31.05;16.02;;;1.90;99.90;;;;;;4973883;28;20090;-82
2020/12/23 09:30:48;;;;;;;31.80;16.10;;;2.00;99.90;;;;;;4973833;28;20457;-77
2020/12/23 09:33:19;;;;;;;30.08;15.02;;;2.00;99.90;;;;;;4974031;28;20098;-83
2020/12/23 09:35:47;;;;;;;32.95;15.45;;;2.10;99.90;;;;;;4974706;28;20027;-82
2020/12/23 09:38:24;;;;;;;32.63;16.17;;;2.10;99.90;;;;;;4974556;28;20461;-81
2020/12/23 09:40:53;;;;;;;33.85;17.58;;;2.10;99.90;;;;;;4974454;28;20022;-81
2020/12/23 09:43:26;;;;;;;31.10;17.25;;;2.20;99.90;;;;;;4972843;28;20033;-84
2020/12/23 09:45:54;;;;;;;34.65;19.27;;;2.30;99.90;;;;;;4974299;28;20349;-82
2020/12/23 09:48:21;;;;;;;48.30;24.55;;;2.40;99.90;;;;;;4974165;28;20034;-82
2020/12/23 09:50:48;;;;;;;44.85;22.85;;;2.50;99.90;;;;;;4974026;28;20050;-83
2020/12/23 09:53:14;;;;;;;49.70;20.00;;;2.60;99.90;;;;;;4973744;28;20033;-82
2020/12/23 09:55:44;;;;;;;49.65;23.10;;;2.70;99.90;;;;;;4972095;28;20121;-81
2020/12/23 09:58:11;;;;;;;61.88;24.75;;;2.80;99.90;;;;;;4974192;28;20023;-82
2020/12/23 10:00:37;;;;;;;69.07;28.30;;;2.80;99.90;;;;;;4972400;28;20362;-82
2020/12/23 10:03:04;;;;;;;44.50;20.33;;;2.90;99.90;;;;;;4974158;28;20022;-83
2020/12/23 10:05:31;;;;;;;33.25;17.45;;;2.90;99.90;;;;;;4973965;28;20031;-84
2020/12/23 10:07:57;;;;;;;34.85;17.45;;;2.90;99.90;;;;;;4974088;28;20102;-85
2020/12/23 10:10:23;;;;;;;35.75;16.30;;;3.00;99.90;;;;;;4973556;28;20034;-85
2020/12/23 10:12:49;;;;;;;30.23;15.57;;;3.00;99.90;;;;;;4974020;28;20481;-85
2020/12/23 10:15:15;;;;;;;28.23;13.85;;;3.00;99.90;;;;;;4972579;28;20194;-85
2020/12/23 10:17:41;;;;;;;25.67;14.20;;;3.10;99.90;;;;;;4973610;28;20035;-84
2020/12/23 10:20:08;;;;;;;29.17;15.27;;;3.10;99.90;;;;;;4973492;28;20027;-85
2020/12/23 10:22:34;;;;;;;25.92;14.98;;;3.10;99.90;;;;;;4973904;28;20466;-85
2020/12/23 10:25:00;;;;;;;30.45;16.10;;;3.10;99.90;;;;;;4974111;28;20019;-86
2020/12/23 10:27:26;;;;;;;23.77;14.27;;;3.10;99.90;;;;;;4974631;28;20023;-86
2020/12/23 10:29:52;;;;;;;27.65;15.27;;;3.00;99.90;;;;;;4974265;28;20065;-85
2020/12/23 10:32:19;;;;;;;26.08;14.80;;;3.00;99.90;;;;;;4974063;28;20079;-85
2020/12/23 10:34:46;;;;;;;33.63;16.88;;;3.00;99.90;;;;;;4972238;28;20819;-80
2020/12/23 10:37:12;;;;;;;29.25;16.17;;;3.00;99.90;;;;;;4972207;28;20042;-79
2020/12/23 10:39:37;;;;;;;32.10;15.48;;;3.10;99.90;;;;;;4971989;28;20023;-81
2020/12/23 10:42:03;;;;;;;26.80;14.50;;;3.10;99.90;;;;;;4971018;28;20373;-78
2020/12/23 10:44:29;;;;;;;33.10;16.75;;;3.10;99.90;;;;;;4972216;28;20054;-80
2020/12/23 10:46:59;;;;;;;29.25;15.55;;;3.10;99.90;;;;;;4953933;28;20026;-78
2020/12/23 10:49:26;;;;;;;28.23;16.02;;;3.10;99.90;;;;;;4971196;28;20031;-79
2020/12/23 10:51:58;;;;;;;27.67;15.43;;;3.10;99.90;;;;;;4953947;28;20117;-79
2020/12/23 10:54:28;;;;;;;29.33;15.93;;;3.10;99.90;;;;;;4971333;28;20081;-77
2020/12/23 10:56:55;;;;;;;30.05;16.80;;;3.10;99.90;;;;;;4972170;28;20086;-80
2020/12/23 10:59:22;;;;;;;32.38;17.13;;;3.00;99.90;;;;;;4972469;28;20089;-82
2020/12/23 11:01:54;;;;;;;29.67;16.10;;;2.90;99.90;;;;;;4969649;28;20037;-78
2020/12/23 11:04:21;;;;;;;35.53;16.25;;;2.90;99.90;;;;;;4970608;28;20031;-77
2020/12/23 11:06:51;;;;;;;32.13;16.08;;;2.90;99.90;;;;;;4970110;28;20509;-77
2020/12/23 11:09:18;;;;;;;36.08;17.52;;;2.90;99.90;;;;;;4970545;28;20489;-79
2020/12/23 11:11:50;;;;;;;33.92;18.40;;;2.80;99.90;;;;;;4968923;28;20465;-80
2020/12/23 11:14:16;;;;;;;35.03;18.10;;;2.80;99.90;;;;;;4974483;28;20054;-79
2020/12/23 11:16:42;;;;;;;35.15;18.90;;;2.80;99.90;;;;;;4975319;28;20046;-80
2020/12/23 11:19:07;;;;;;;32.38;18.08;;;2.80;99.90;;;;;;4975150;28;20019;-79
2020/12/23 11:21:33;;;;;;;40.65;19.90;;;2.80;99.90;;;;;;4974691;28;20370;-80
2020/12/23 11:23:59;;;;;;;34.88;18.83;;;2.80;99.90;;;;;;4973842;28;20109;-81
2020/12/23 11:26:25;;;;;;;39.17;19.58;;;2.80;99.90;;;;;;4958577;28;20430;-85
2020/12/23 11:28:51;;;;;;;35.55;19.80;;;2.70;99.90;;;;;;4976481;28;20030;-85
2020/12/23 11:31:16;;;;;;;38.78;20.63;;;2.70;99.90;;;;;;4980680;28;20034;-88
2020/12/23 11:33:42;;;;;;;38.70;19.10;;;2.70;99.90;;;;;;4977641;28;20745;-86
2020/12/23 11:36:08;;;;;;;42.20;21.30;;;2.70;99.90;;;;;;4976456;28;20105;-85
2020/12/23 11:38:34;;;;;;;46.55;22.17;;;2.60;99.90;;;;;;4976389;28;20030;-84
2020/12/23 11:41:00;;;;;;;39.75;19.98;;;2.60;99.90;;;;;;4976777;28;20047;-84
2020/12/23 11:43:26;;;;;;;46.65;23.50;;;2.70;99.90;;;;;;4959215;28;20469;-84
2020/12/23 11:45:52;;;;;;;40.85;22.27;;;2.70;99.90;;;;;;4974130;28;20118;-79
2020/12/23 11:48:18;;;;;;;44.45;23.90;;;2.60;99.90;;;;;;4974607;28;20484;-77
2020/12/23 11:50:44;;;;;;;47.58;22.75;;;2.60;99.90;;;;;;4973044;28;20034;-80
2020/12/23 11:53:10;;;;;;;45.08;24.15;;;2.50;99.90;;;;;;4975101;28;20125;-80
2020/12/23 11:55:36;;;;;;;46.15;23.92;;;2.50;99.90;;;;;;4974625;28;20134;-80
2020/12/23 11:58:02;;;;;;;49.88;22.25;;;2.40;99.90;;;;;;4974890;28;20118;-80
2020/12/23 12:00:28;;;;;;;42.33;22.70;;;2.40;99.90;;;;;;4975062;28;20058;-80
2020/12/23 12:02:54;;;;;;;36.92;20.17;;;2.30;99.90;;;;;;4975857;28;20038;-80
2020/12/23 12:05:19;;;;;;;45.95;21.73;;;2.30;99.90;;;;;;4975098;28;20420;-81
2020/12/23 12:07:45;;;;;;;44.78;22.92;;;2.30;99.90;;;;;;4975383;28;20026;-81
2020/12/23 12:10:11;;;;;;;44.75;22.40;;;2.20;99.90;;;;;;4975502;28;20073;-82
2020/12/23 12:12:37;;;;;;;54.25;25.48;;;2.20;99.90;;;;;;4974656;28;20042;-81
2020/12/23 12:15:03;;;;;;;61.08;22.75;;;2.20;99.90;;;;;;4976250;28;20055;-82
2020/12/23 12:17:29;;;;;;;50.95;25.73;;;2.20;99.90;;;;;;4975921;28;20062;-80
2020/12/23 12:19:55;;;;;;;41.25;20.08;;;2.10;99.90;;;;;;4976251;28;20122;-80
2020/12/23 12:22:22;;;;;;;41.45;21.50;;;2.10;99.90;;;;;;4959426;28;20109;-80
2020/12/23 12:24:47;;;;;;;47.25;22.80;;;2.00;99.90;;;;;;4975710;28;20082;-81
2020/12/23 12:27:13;;;;;;;48.15;23.85;;;2.00;99.90;;;;;;4977650;28;20433;-80
2020/12/23 12:29:40;;;;;;;52.63;25.33;;;2.00;99.90;;;;;;4959450;28;20207;-81
2020/12/23 12:32:06;;;;;;;48.50;23.48;;;2.00;99.90;;;;;;4957894;28;20062;-82
2020/12/23 12:34:33;;;;;;;42.80;21.38;;;2.00;99.90;;;;;;4976263;28;20058;-81
2020/12/23 12:36:59;;;;;;;49.08;22.13;;;2.10;99.90;;;;;;4976745;28;20030;-80
2020/12/23 12:39:29;;;;;;;48.58;23.13;;;2.00;99.90;;;;;;4976073;28;20385;-80